sensor_id;sensor_type;location;lat;lon;timestamp;P1;durP1;ratioP1;P2;durP2;ratioP2
23802;SDS011;12082;51.786;6.018;2023-05-27T00:02:15;51.77;;;48.33;;
23802;SDS011;12082;51.786;6.018;2023-05-27T00:04:41;52.17;;;48.67;;
23802;SDS011;12082;51.786;6.018;2023-05-27T00:07:07;51.70;;;48.17;;
23802;SDS011;12082;51.786;6.018;2023-05-27T00:09:32;52.30;;;48.57;;
23802;SDS011;12082;51.786;6.018;2023-05-27T00:11:58;51.73;;;48.33;;
23802;SDS011;12082;51.786;6.018;2023-05-27T00:14:25;51.50;;;48.27;;
23802;SDS011;12082;51.786;6.018;2023-05-27T00:16:51;53.37;;;49.80;;
23802;SDS011;12082;51.786;6.018;2023-05-27T00:19:16;54.20;;;50.53;;
23802;SDS011;12082;51.786;6.018;2023-05-27T00:21:42;53.57;;;50.37;;
23802;SDS011;12082;51.786;6.018;2023-05-27T00:24:07;53.10;;;49.60;;
23802;SDS011;12082;51.786;6.018;2023-05-27T00:26:33;52.97;;;48.77;;
23802;SDS011;12082;51.786;6.018;2023-05-27T00:28:59;49.50;;;46.47;;
23802;SDS011;12082;51.786;6.018;2023-05-27T00:31:24;50.13;;;46.43;;
23802;SDS011;12082;51.786;6.018;2023-05-27T00:33:50;49.70;;;46.50;;
23802;SDS011;12082;51.786;6.018;2023-05-27T00:36:15;50.80;;;46.80;;
23802;SDS011;12082;51.786;6.018;2023-05-27T00:38:42;51.17;;;47.33;;
23802;SDS011;12082;51.786;6.018;2023-05-27T00:41:08;51.70;;;48.03;;
23802;SDS011;12082;51.786;6.018;2023-05-27T00:43:37;53.50;;;50.10;;
23802;SDS011;12082;51.786;6.018;2023-05-27T00:46:03;50.23;;;46.80;;
23802;SDS011;12082;51.786;6.018;2023-05-27T00:48:28;50.23;;;47.10;;
23802;SDS011;12082;51.786;6.018;2023-05-27T00:50:54;50.30;;;46.77;;
23802;SDS011;12082;51.786;6.018;2023-05-27T00:53:20;52.87;;;48.73;;
23802;SDS011;12082;51.786;6.018;2023-05-27T00:55:46;53.40;;;50.13;;
23802;SDS011;12082;51.786;6.018;2023-05-27T00:58:12;56.37;;;52.47;;
23802;SDS011;12082;51.786;6.018;2023-05-27T01:00:38;55.07;;;51.73;;
23802;SDS011;12082;51.786;6.018;2023-05-27T01:03:04;56.87;;;53.03;;
23802;SDS011;12082;51.786;6.018;2023-05-27T01:05:31;54.70;;;51.30;;
23802;SDS011;12082;51.786;6.018;2023-05-27T01:10:46;51.93;;;48.83;;
23802;SDS011;12082;51.786;6.018;2023-05-27T01:15:46;50.00;;;46.90;;
23802;SDS011;12082;51.786;6.018;2023-05-27T01:18:15;51.03;;;47.33;;
23802;SDS011;12082;51.786;6.018;2023-05-27T01:20:42;50.10;;;46.27;;
23802;SDS011;12082;51.786;6.018;2023-05-27T01:23:08;50.67;;;47.33;;
23802;SDS011;12082;51.786;6.018;2023-05-27T01:25:34;51.70;;;47.83;;
23802;SDS011;12082;51.786;6.018;2023-05-27T01:28:00;51.33;;;47.53;;
23802;SDS011;12082;51.786;6.018;2023-05-27T01:30:25;51.40;;;48.10;;
23802;SDS011;12082;51.786;6.018;2023-05-27T01:32:58;50.23;;;46.90;;
23802;SDS011;12082;51.786;6.018;2023-05-27T01:35:51;51.37;;;47.83;;
23802;SDS011;12082;51.786;6.018;2023-05-27T01:38:21;53.63;;;50.17;;
23802;SDS011;12082;51.786;6.018;2023-05-27T01:40:49;57.17;;;53.53;;
23802;SDS011;12082;51.786;6.018;2023-05-27T01:43:16;56.50;;;53.00;;
23802;SDS011;12082;51.786;6.018;2023-05-27T01:45:43;52.70;;;49.60;;
23802;SDS011;12082;51.786;6.018;2023-05-27T01:48:09;51.53;;;48.20;;
23802;SDS011;12082;51.786;6.018;2023-05-27T01:50:35;53.20;;;49.80;;
23802;SDS011;12082;51.786;6.018;2023-05-27T01:53:02;52.73;;;49.07;;
23802;SDS011;12082;51.786;6.018;2023-05-27T01:55:28;51.70;;;47.73;;
23802;SDS011;12082;51.786;6.018;2023-05-27T01:57:55;49.33;;;46.27;;
23802;SDS011;12082;51.786;6.018;2023-05-27T02:00:21;50.87;;;47.17;;
23802;SDS011;12082;51.786;6.018;2023-05-27T02:02:47;50.73;;;46.83;;
23802;SDS011;12082;51.786;6.018;2023-05-27T02:05:13;51.77;;;47.60;;
23802;SDS011;12082;51.786;6.018;2023-05-27T02:07:39;50.27;;;46.57;;
23802;SDS011;12082;51.786;6.018;2023-05-27T02:10:04;50.47;;;47.50;;
23802;SDS011;12082;51.786;6.018;2023-05-27T02:12:30;49.60;;;46.20;;
23802;SDS011;12082;51.786;6.018;2023-05-27T02:14:56;50.50;;;46.73;;
23802;SDS011;12082;51.786;6.018;2023-05-27T02:17:21;48.70;;;45.27;;
23802;SDS011;12082;51.786;6.018;2023-05-27T02:19:49;47.13;;;42.40;;
23802;SDS011;12082;51.786;6.018;2023-05-27T02:22:15;43.53;;;40.23;;
23802;SDS011;12082;51.786;6.018;2023-05-27T02:24:40;45.57;;;42.43;;
23802;SDS011;12082;51.786;6.018;2023-05-27T02:27:06;47.87;;;44.10;;
23802;SDS011;12082;51.786;6.018;2023-05-27T02:29:31;46.60;;;43.40;;
23802;SDS011;12082;51.786;6.018;2023-05-27T02:31:57;45.90;;;42.80;;
23802;SDS011;12082;51.786;6.018;2023-05-27T02:34:23;47.80;;;44.10;;
23802;SDS011;12082;51.786;6.018;2023-05-27T02:36:48;47.03;;;44.17;;
23802;SDS011;12082;51.786;6.018;2023-05-27T02:39:14;45.40;;;42.03;;
23802;SDS011;12082;51.786;6.018;2023-05-27T02:41:39;45.13;;;41.23;;
23802;SDS011;12082;51.786;6.018;2023-05-27T02:44:05;41.07;;;37.97;;
23802;SDS011;12082;51.786;6.018;2023-05-27T02:46:30;41.13;;;37.90;;
23802;SDS011;12082;51.786;6.018;2023-05-27T02:48:56;40.00;;;37.23;;
23802;SDS011;12082;51.786;6.018;2023-05-27T02:51:22;39.10;;;35.63;;
23802;SDS011;12082;51.786;6.018;2023-05-27T02:53:47;38.83;;;35.70;;
23802;SDS011;12082;51.786;6.018;2023-05-27T02:56:14;39.17;;;36.23;;
23802;SDS011;12082;51.786;6.018;2023-05-27T02:58:40;37.80;;;35.10;;
23802;SDS011;12082;51.786;6.018;2023-05-27T03:01:05;40.47;;;37.07;;
23802;SDS011;12082;51.786;6.018;2023-05-27T03:03:31;40.07;;;37.20;;
23802;SDS011;12082;51.786;6.018;2023-05-27T03:05:56;42.63;;;39.57;;
23802;SDS011;12082;51.786;6.018;2023-05-27T03:08:22;45.80;;;41.70;;
23802;SDS011;12082;51.786;6.018;2023-05-27T03:10:47;47.27;;;43.60;;
23802;SDS011;12082;51.786;6.018;2023-05-27T03:13:13;45.20;;;41.93;;
23802;SDS011;12082;51.786;6.018;2023-05-27T03:15:39;44.10;;;41.13;;
23802;SDS011;12082;51.786;6.018;2023-05-27T03:18:04;46.07;;;42.63;;
23802;SDS011;12082;51.786;6.018;2023-05-27T03:20:30;46.17;;;42.70;;
23802;SDS011;12082;51.786;6.018;2023-05-27T03:22:56;42.80;;;39.47;;
23802;SDS011;12082;51.786;6.018;2023-05-27T03:25:21;45.47;;;41.30;;
23802;SDS011;12082;51.786;6.018;2023-05-27T03:27:47;45.43;;;42.10;;
23802;SDS011;12082;51.786;6.018;2023-05-27T03:30:12;45.90;;;42.23;;
23802;SDS011;12082;51.786;6.018;2023-05-27T03:32:38;46.40;;;42.97;;
23802;SDS011;12082;51.786;6.018;2023-05-27T03:35:04;49.10;;;45.40;;
23802;SDS011;12082;51.786;6.018;2023-05-27T03:37:29;47.37;;;44.03;;
23802;SDS011;12082;51.786;6.018;2023-05-27T03:39:55;46.53;;;43.30;;
23802;SDS011;12082;51.786;6.018;2023-05-27T03:42:21;48.20;;;44.50;;
23802;SDS011;12082;51.786;6.018;2023-05-27T03:44:46;44.60;;;41.57;;
23802;SDS011;12082;51.786;6.018;2023-05-27T03:47:12;46.53;;;43.20;;
23802;SDS011;12082;51.786;6.018;2023-05-27T03:49:38;46.30;;;43.13;;
23802;SDS011;12082;51.786;6.018;2023-05-27T03:52:03;45.90;;;42.83;;
23802;SDS011;12082;51.786;6.018;2023-05-27T03:54:30;45.53;;;42.47;;
23802;SDS011;12082;51.786;6.018;2023-05-27T03:56:55;47.40;;;44.03;;
23802;SDS011;12082;51.786;6.018;2023-05-27T03:59:21;46.40;;;43.60;;
23802;SDS011;12082;51.786;6.018;2023-05-27T04:01:46;44.70;;;41.60;;
23802;SDS011;12082;51.786;6.018;2023-05-27T04:04:12;45.67;;;42.43;;
23802;SDS011;12082;51.786;6.018;2023-05-27T04:06:38;45.50;;;42.37;;
23802;SDS011;12082;51.786;6.018;2023-05-27T04:09:04;46.53;;;43.07;;
23802;SDS011;12082;51.786;6.018;2023-05-27T04:11:30;48.07;;;44.53;;
23802;SDS011;12082;51.786;6.018;2023-05-27T04:13:55;45.43;;;42.67;;
23802;SDS011;12082;51.786;6.018;2023-05-27T04:16:21;45.47;;;42.40;;
23802;SDS011;12082;51.786;6.018;2023-05-27T04:18:49;47.80;;;43.63;;
23802;SDS011;12082;51.786;6.018;2023-05-27T04:21:16;48.30;;;44.87;;
23802;SDS011;12082;51.786;6.018;2023-05-27T04:23:42;49.67;;;45.40;;
23802;SDS011;12082;51.786;6.018;2023-05-27T04:26:08;47.17;;;44.03;;
23802;SDS011;12082;51.786;6.018;2023-05-27T04:28:33;47.57;;;43.93;;
23802;SDS011;12082;51.786;6.018;2023-05-27T04:31:00;48.23;;;44.90;;
23802;SDS011;12082;51.786;6.018;2023-05-27T04:33:25;46.97;;;43.33;;
23802;SDS011;12082;51.786;6.018;2023-05-27T04:35:52;47.20;;;44.20;;
23802;SDS011;12082;51.786;6.018;2023-05-27T04:38:18;48.35;;;44.60;;
23802;SDS011;12082;51.786;6.018;2023-05-27T04:40:46;47.87;;;44.97;;
23802;SDS011;12082;51.786;6.018;2023-05-27T04:43:17;48.07;;;44.70;;
23802;SDS011;12082;51.786;6.018;2023-05-27T04:45:46;46.67;;;43.67;;
23802;SDS011;12082;51.786;6.018;2023-05-27T04:48:12;48.07;;;44.80;;
23802;SDS011;12082;51.786;6.018;2023-05-27T04:50:39;49.50;;;45.93;;
23802;SDS011;12082;51.786;6.018;2023-05-27T04:53:05;49.30;;;45.77;;
23802;SDS011;12082;51.786;6.018;2023-05-27T04:55:31;50.53;;;46.43;;
23802;SDS011;12082;51.786;6.018;2023-05-27T04:57:57;48.43;;;45.03;;
23802;SDS011;12082;51.786;6.018;2023-05-27T05:00:23;51.10;;;47.33;;
23802;SDS011;12082;51.786;6.018;2023-05-27T05:03:02;49.90;;;45.57;;
23802;SDS011;12082;51.786;6.018;2023-05-27T05:05:28;49.33;;;45.83;;
23802;SDS011;12082;51.786;6.018;2023-05-27T05:07:54;51.57;;;47.43;;
23802;SDS011;12082;51.786;6.018;2023-05-27T05:10:19;51.43;;;47.80;;
23802;SDS011;12082;51.786;6.018;2023-05-27T05:12:45;53.57;;;48.93;;
23802;SDS011;12082;51.786;6.018;2023-05-27T05:15:11;50.40;;;46.90;;
23802;SDS011;12082;51.786;6.018;2023-05-27T05:17:37;53.43;;;49.40;;
23802;SDS011;12082;51.786;6.018;2023-05-27T05:20:03;56.43;;;51.93;;
23802;SDS011;12082;51.786;6.018;2023-05-27T05:22:30;56.77;;;52.43;;
23802;SDS011;12082;51.786;6.018;2023-05-27T05:24:56;55.13;;;50.87;;
23802;SDS011;12082;51.786;6.018;2023-05-27T05:27:23;55.73;;;51.40;;
23802;SDS011;12082;51.786;6.018;2023-05-27T05:29:50;60.40;;;55.00;;
23802;SDS011;12082;51.786;6.018;2023-05-27T05:32:15;56.27;;;51.93;;
23802;SDS011;12082;51.786;6.018;2023-05-27T05:34:41;54.93;;;51.20;;
23802;SDS011;12082;51.786;6.018;2023-05-27T05:37:06;55.10;;;50.30;;
23802;SDS011;12082;51.786;6.018;2023-05-27T05:39:32;54.87;;;50.43;;
23802;SDS011;12082;51.786;6.018;2023-05-27T05:41:58;57.23;;;52.43;;
23802;SDS011;12082;51.786;6.018;2023-05-27T05:44:24;51.30;;;47.27;;
23802;SDS011;12082;51.786;6.018;2023-05-27T05:46:51;47.40;;;43.80;;
23802;SDS011;12082;51.786;6.018;2023-05-27T05:49:17;42.77;;;39.33;;
23802;SDS011;12082;51.786;6.018;2023-05-27T05:51:44;45.03;;;41.37;;
23802;SDS011;12082;51.786;6.018;2023-05-27T05:54:09;49.00;;;45.20;;
23802;SDS011;12082;51.786;6.018;2023-05-27T05:56:35;44.43;;;41.00;;
23802;SDS011;12082;51.786;6.018;2023-05-27T05:59:00;40.30;;;36.97;;
23802;SDS011;12082;51.786;6.018;2023-05-27T06:01:26;69.07;;;64.83;;
23802;SDS011;12082;51.786;6.018;2023-05-27T06:03:55;65.20;;;61.03;;
23802;SDS011;12082;51.786;6.018;2023-05-27T06:06:21;69.53;;;65.10;;
23802;SDS011;12082;51.786;6.018;2023-05-27T06:08:47;54.73;;;51.10;;
23802;SDS011;12082;51.786;6.018;2023-05-27T06:11:12;38.43;;;35.63;;
23802;SDS011;12082;51.786;6.018;2023-05-27T06:13:38;34.03;;;30.87;;
23802;SDS011;12082;51.786;6.018;2023-05-27T06:16:03;32.00;;;29.00;;
23802;SDS011;12082;51.786;6.018;2023-05-27T06:18:29;32.93;;;30.63;;
23802;SDS011;12082;51.786;6.018;2023-05-27T06:20:55;33.57;;;30.83;;
23802;SDS011;12082;51.786;6.018;2023-05-27T06:23:20;35.97;;;32.40;;
23802;SDS011;12082;51.786;6.018;2023-05-27T06:25:46;37.63;;;34.57;;
23802;SDS011;12082;51.786;6.018;2023-05-27T06:28:11;36.40;;;33.13;;
23802;SDS011;12082;51.786;6.018;2023-05-27T06:30:37;36.20;;;32.97;;
23802;SDS011;12082;51.786;6.018;2023-05-27T06:33:03;37.67;;;34.37;;
23802;SDS011;12082;51.786;6.018;2023-05-27T06:35:29;33.77;;;30.93;;
23802;SDS011;12082;51.786;6.018;2023-05-27T06:37:54;43.33;;;40.30;;
23802;SDS011;12082;51.786;6.018;2023-05-27T06:40:20;61.13;;;57.10;;
23802;SDS011;12082;51.786;6.018;2023-05-27T06:42:46;73.57;;;68.60;;
23802;SDS011;12082;51.786;6.018;2023-05-27T06:45:11;63.40;;;59.17;;
23802;SDS011;12082;51.786;6.018;2023-05-27T06:47:37;55.60;;;51.90;;
23802;SDS011;12082;51.786;6.018;2023-05-27T06:50:03;50.53;;;47.00;;
23802;SDS011;12082;51.786;6.018;2023-05-27T06:52:29;46.10;;;42.70;;
23802;SDS011;12082;51.786;6.018;2023-05-27T06:54:55;46.83;;;43.53;;
23802;SDS011;12082;51.786;6.018;2023-05-27T06:57:20;41.57;;;38.60;;
23802;SDS011;12082;51.786;6.018;2023-05-27T06:59:46;43.20;;;39.77;;
23802;SDS011;12082;51.786;6.018;2023-05-27T07:02:11;36.30;;;33.33;;
23802;SDS011;12082;51.786;6.018;2023-05-27T07:04:37;36.47;;;34.13;;
23802;SDS011;12082;51.786;6.018;2023-05-27T07:07:03;39.00;;;35.70;;
23802;SDS011;12082;51.786;6.018;2023-05-27T07:09:29;30.07;;;27.50;;
23802;SDS011;12082;51.786;6.018;2023-05-27T07:11:54;25.03;;;22.50;;
23802;SDS011;12082;51.786;6.018;2023-05-27T07:14:20;20.87;;;18.73;;
23802;SDS011;12082;51.786;6.018;2023-05-27T07:16:45;19.43;;;17.47;;
23802;SDS011;12082;51.786;6.018;2023-05-27T07:19:11;22.80;;;13.60;;
23802;SDS011;12082;51.786;6.018;2023-05-27T07:21:37;19.27;;;16.13;;
23802;SDS011;12082;51.786;6.018;2023-05-27T07:24:02;20.93;;;14.47;;
23802;SDS011;12082;51.786;6.018;2023-05-27T07:26:28;18.97;;;12.03;;
23802;SDS011;12082;51.786;6.018;2023-05-27T07:28:56;16.27;;;12.77;;
23802;SDS011;12082;51.786;6.018;2023-05-27T07:31:22;18.57;;;11.97;;
23802;SDS011;12082;51.786;6.018;2023-05-27T07:33:48;17.87;;;11.77;;
23802;SDS011;12082;51.786;6.018;2023-05-27T07:36:13;21.67;;;11.67;;
23802;SDS011;12082;51.786;6.018;2023-05-27T07:38:39;21.73;;;11.20;;
23802;SDS011;12082;51.786;6.018;2023-05-27T07:41:04;14.77;;;11.13;;
23802;SDS011;12082;51.786;6.018;2023-05-27T07:43:30;18.93;;;11.03;;
23802;SDS011;12082;51.786;6.018;2023-05-27T07:45:55;15.90;;;10.13;;
23802;SDS011;12082;51.786;6.018;2023-05-27T07:48:21;14.07;;;9.50;;
23802;SDS011;12082;51.786;6.018;2023-05-27T07:50:46;18.57;;;10.00;;
23802;SDS011;12082;51.786;6.018;2023-05-27T07:53:12;19.43;;;10.23;;
23802;SDS011;12082;51.786;6.018;2023-05-27T07:55:37;16.97;;;10.13;;
23802;SDS011;12082;51.786;6.018;2023-05-27T07:58:03;19.00;;;12.10;;
23802;SDS011;12082;51.786;6.018;2023-05-27T08:00:28;20.03;;;10.87;;
23802;SDS011;12082;51.786;6.018;2023-05-27T08:02:55;20.00;;;9.40;;
23802;SDS011;12082;51.786;6.018;2023-05-27T08:05:20;20.17;;;11.60;;
23802;SDS011;12082;51.786;6.018;2023-05-27T08:07:46;17.07;;;10.17;;
23802;SDS011;12082;51.786;6.018;2023-05-27T08:10:12;16.83;;;10.47;;
23802;SDS011;12082;51.786;6.018;2023-05-27T08:12:37;19.77;;;10.20;;
23802;SDS011;12082;51.786;6.018;2023-05-27T08:15:03;23.00;;;9.23;;
23802;SDS011;12082;51.786;6.018;2023-05-27T08:17:29;15.97;;;9.33;;
23802;SDS011;12082;51.786;6.018;2023-05-27T08:19:54;19.50;;;8.70;;
23802;SDS011;12082;51.786;6.018;2023-05-27T08:22:20;23.77;;;8.70;;
23802;SDS011;12082;51.786;6.018;2023-05-27T08:24:45;15.97;;;9.63;;
23802;SDS011;12082;51.786;6.018;2023-05-27T08:27:14;17.50;;;10.03;;
23802;SDS011;12082;51.786;6.018;2023-05-27T08:29:41;19.10;;;9.57;;
23802;SDS011;12082;51.786;6.018;2023-05-27T08:32:07;19.83;;;9.17;;
23802;SDS011;12082;51.786;6.018;2023-05-27T08:34:32;21.00;;;10.00;;
23802;SDS011;12082;51.786;6.018;2023-05-27T08:36:58;17.50;;;9.20;;
23802;SDS011;12082;51.786;6.018;2023-05-27T08:39:25;17.63;;;8.80;;
23802;SDS011;12082;51.786;6.018;2023-05-27T08:41:51;15.87;;;8.97;;
23802;SDS011;12082;51.786;6.018;2023-05-27T08:44:19;15.63;;;9.23;;
23802;SDS011;12082;51.786;6.018;2023-05-27T08:46:48;17.60;;;9.53;;
23802;SDS011;12082;51.786;6.018;2023-05-27T08:49:14;20.57;;;9.33;;
23802;SDS011;12082;51.786;6.018;2023-05-27T08:51:39;14.67;;;9.10;;
23802;SDS011;12082;51.786;6.018;2023-05-27T08:54:07;18.40;;;11.00;;
23802;SDS011;12082;51.786;6.018;2023-05-27T08:56:34;17.03;;;10.13;;
23802;SDS011;12082;51.786;6.018;2023-05-27T08:59:00;17.83;;;10.87;;
23802;SDS011;12082;51.786;6.018;2023-05-27T09:01:26;15.47;;;11.67;;
23802;SDS011;12082;51.786;6.018;2023-05-27T09:03:53;17.33;;;10.30;;
23802;SDS011;12082;51.786;6.018;2023-05-27T09:06:20;18.20;;;11.80;;
23802;SDS011;12082;51.786;6.018;2023-05-27T09:08:46;16.70;;;10.30;;
23802;SDS011;12082;51.786;6.018;2023-05-27T09:13:47;19.00;;;10.33;;
23802;SDS011;12082;51.786;6.018;2023-05-27T09:16:13;21.60;;;11.43;;
23802;SDS011;12082;51.786;6.018;2023-05-27T09:18:46;17.63;;;10.37;;
23802;SDS011;12082;51.786;6.018;2023-05-27T09:21:11;16.47;;;10.23;;
23802;SDS011;12082;51.786;6.018;2023-05-27T09:23:37;22.43;;;11.33;;
23802;SDS011;12082;51.786;6.018;2023-05-27T09:26:07;16.33;;;10.13;;
23802;SDS011;12082;51.786;6.018;2023-05-27T09:28:35;20.60;;;10.70;;
23802;SDS011;12082;51.786;6.018;2023-05-27T09:31:02;21.80;;;10.33;;
23802;SDS011;12082;51.786;6.018;2023-05-27T09:33:31;20.83;;;11.00;;
23802;SDS011;12082;51.786;6.018;2023-05-27T09:35:59;21.00;;;9.93;;
23802;SDS011;12082;51.786;6.018;2023-05-27T09:38:28;19.70;;;10.07;;
23802;SDS011;12082;51.786;6.018;2023-05-27T09:41:00;17.47;;;9.77;;
23802;SDS011;12082;51.786;6.018;2023-05-27T09:43:27;20.37;;;10.63;;
23802;SDS011;12082;51.786;6.018;2023-05-27T09:45:55;24.17;;;10.60;;
23802;SDS011;12082;51.786;6.018;2023-05-27T09:48:31;17.27;;;9.17;;
23802;SDS011;12082;51.786;6.018;2023-05-27T09:50:57;19.37;;;11.50;;
23802;SDS011;12082;51.786;6.018;2023-05-27T09:53:25;18.87;;;10.40;;
23802;SDS011;12082;51.786;6.018;2023-05-27T09:55:55;19.43;;;11.07;;
23802;SDS011;12082;51.786;6.018;2023-05-27T09:58:22;17.73;;;11.87;;
23802;SDS011;12082;51.786;6.018;2023-05-27T10:00:48;26.60;;;12.97;;
23802;SDS011;12082;51.786;6.018;2023-05-27T10:03:15;18.53;;;12.47;;
23802;SDS011;12082;51.786;6.018;2023-05-27T10:05:42;21.73;;;13.63;;
23802;SDS011;12082;51.786;6.018;2023-05-27T10:08:10;25.30;;;11.87;;
23802;SDS011;12082;51.786;6.018;2023-05-27T10:10:38;18.20;;;11.33;;
23802;SDS011;12082;51.786;6.018;2023-05-27T10:13:03;21.20;;;15.00;;
23802;SDS011;12082;51.786;6.018;2023-05-27T10:15:31;23.77;;;15.37;;
23802;SDS011;12082;51.786;6.018;2023-05-27T10:17:58;17.73;;;14.70;;
23802;SDS011;12082;51.786;6.018;2023-05-27T10:20:32;18.20;;;13.60;;
23802;SDS011;12082;51.786;6.018;2023-05-27T10:26:16;23.50;;;14.70;;
23802;SDS011;12082;51.786;6.018;2023-05-27T10:28:41;17.50;;;11.90;;
23802;SDS011;12082;51.786;6.018;2023-05-27T10:31:07;15.33;;;11.47;;
23802;SDS011;12082;51.786;6.018;2023-05-27T10:33:35;23.20;;;12.03;;
23802;SDS011;12082;51.786;6.018;2023-05-27T10:36:09;22.03;;;11.73;;
23802;SDS011;12082;51.786;6.018;2023-05-27T10:38:36;20.40;;;12.23;;
23802;SDS011;12082;51.786;6.018;2023-05-27T10:41:03;15.57;;;11.27;;
23802;SDS011;12082;51.786;6.018;2023-05-27T10:43:31;15.70;;;10.90;;
23802;SDS011;12082;51.786;6.018;2023-05-27T10:46:06;18.97;;;10.97;;
23802;SDS011;12082;51.786;6.018;2023-05-27T10:48:41;19.40;;;11.00;;
23802;SDS011;12082;51.786;6.018;2023-05-27T10:51:08;20.70;;;10.90;;
23802;SDS011;12082;51.786;6.018;2023-05-27T10:53:37;18.90;;;9.73;;
23802;SDS011;12082;51.786;6.018;2023-05-27T10:56:03;19.20;;;10.17;;
23802;SDS011;12082;51.786;6.018;2023-05-27T10:58:29;18.93;;;9.20;;
23802;SDS011;12082;51.786;6.018;2023-05-27T11:00:55;14.87;;;9.03;;
23802;SDS011;12082;51.786;6.018;2023-05-27T11:03:25;18.87;;;8.93;;
23802;SDS011;12082;51.786;6.018;2023-05-27T11:05:59;17.00;;;8.93;;
23802;SDS011;12082;51.786;6.018;2023-05-27T11:08:26;17.87;;;9.10;;
23802;SDS011;12082;51.786;6.018;2023-05-27T11:11:01;19.43;;;10.10;;
23802;SDS011;12082;51.786;6.018;2023-05-27T11:16:01;17.90;;;9.30;;
23802;SDS011;12082;51.786;6.018;2023-05-27T11:21:07;16.63;;;8.13;;
23802;SDS011;12082;51.786;6.018;2023-05-27T11:26:00;18.23;;;9.70;;
23802;SDS011;12082;51.786;6.018;2023-05-27T11:28:26;16.97;;;8.30;;
23802;SDS011;12082;51.786;6.018;2023-05-27T11:30:57;13.47;;;8.17;;
23802;SDS011;12082;51.786;6.018;2023-05-27T11:33:31;19.60;;;9.07;;
23802;SDS011;12082;51.786;6.018;2023-05-27T11:36:06;12.93;;;8.23;;
23802;SDS011;12082;51.786;6.018;2023-05-27T11:41:35;18.50;;;9.67;;
23802;SDS011;12082;51.786;6.018;2023-05-27T11:44:01;15.33;;;9.20;;
23802;SDS011;12082;51.786;6.018;2023-05-27T11:46:33;16.97;;;9.43;;
23802;SDS011;12082;51.786;6.018;2023-05-27T11:49:03;15.20;;;9.20;;
23802;SDS011;12082;51.786;6.018;2023-05-27T11:51:30;14.90;;;8.97;;
23802;SDS011;12082;51.786;6.018;2023-05-27T11:53:58;15.33;;;9.17;;
23802;SDS011;12082;51.786;6.018;2023-05-27T11:56:26;18.07;;;8.53;;
23802;SDS011;12082;51.786;6.018;2023-05-27T11:58:53;20.10;;;8.97;;
23802;SDS011;12082;51.786;6.018;2023-05-27T12:01:19;21.53;;;8.70;;
23802;SDS011;12082;51.786;6.018;2023-05-27T12:03:45;14.70;;;8.67;;
23802;SDS011;12082;51.786;6.018;2023-05-27T12:06:11;13.50;;;8.63;;
23802;SDS011;12082;51.786;6.018;2023-05-27T12:08:36;20.83;;;8.60;;
23802;SDS011;12082;51.786;6.018;2023-05-27T12:11:03;14.20;;;8.00;;
23802;SDS011;12082;51.786;6.018;2023-05-27T12:13:29;16.07;;;8.80;;
23802;SDS011;12082;51.786;6.018;2023-05-27T12:15:56;20.83;;;8.70;;
23802;SDS011;12082;51.786;6.018;2023-05-27T12:18:22;21.17;;;8.30;;
23802;SDS011;12082;51.786;6.018;2023-05-27T12:20:48;18.63;;;9.47;;
23802;SDS011;12082;51.786;6.018;2023-05-27T12:23:14;16.43;;;8.63;;
23802;SDS011;12082;51.786;6.018;2023-05-27T12:25:40;11.60;;;8.83;;
23802;SDS011;12082;51.786;6.018;2023-05-27T12:28:06;13.40;;;8.27;;
23802;SDS011;12082;51.786;6.018;2023-05-27T12:30:33;12.07;;;8.37;;
23802;SDS011;12082;51.786;6.018;2023-05-27T12:32:59;11.57;;;8.03;;
23802;SDS011;12082;51.786;6.018;2023-05-27T12:35:25;15.30;;;8.17;;
23802;SDS011;12082;51.786;6.018;2023-05-27T12:37:51;15.10;;;8.57;;
23802;SDS011;12082;51.786;6.018;2023-05-27T12:40:17;12.60;;;8.03;;
23802;SDS011;12082;51.786;6.018;2023-05-27T12:42:43;17.53;;;9.43;;
23802;SDS011;12082;51.786;6.018;2023-05-27T12:45:09;15.37;;;8.13;;
23802;SDS011;12082;51.786;6.018;2023-05-27T12:47:35;16.03;;;7.83;;
23802;SDS011;12082;51.786;6.018;2023-05-27T12:50:01;17.43;;;9.53;;
23802;SDS011;12082;51.786;6.018;2023-05-27T12:52:27;10.00;;;7.37;;
23802;SDS011;12082;51.786;6.018;2023-05-27T12:54:53;16.20;;;8.40;;
23802;SDS011;12082;51.786;6.018;2023-05-27T12:57:19;15.73;;;7.70;;
23802;SDS011;12082;51.786;6.018;2023-05-27T12:59:44;16.00;;;8.20;;
23802;SDS011;12082;51.786;6.018;2023-05-27T13:02:10;17.27;;;8.00;;
23802;SDS011;12082;51.786;6.018;2023-05-27T13:04:36;17.13;;;8.27;;
23802;SDS011;12082;51.786;6.018;2023-05-27T13:07:01;19.03;;;8.47;;
23802;SDS011;12082;51.786;6.018;2023-05-27T13:09:27;15.83;;;8.37;;
23802;SDS011;12082;51.786;6.018;2023-05-27T13:11:54;13.57;;;8.20;;
23802;SDS011;12082;51.786;6.018;2023-05-27T13:14:19;13.30;;;7.50;;
23802;SDS011;12082;51.786;6.018;2023-05-27T13:16:45;9.87;;;7.97;;
23802;SDS011;12082;51.786;6.018;2023-05-27T13:19:10;16.03;;;8.70;;
23802;SDS011;12082;51.786;6.018;2023-05-27T13:21:36;13.73;;;8.17;;
23802;SDS011;12082;51.786;6.018;2023-05-27T13:24:02;13.90;;;7.40;;
23802;SDS011;12082;51.786;6.018;2023-05-27T13:26:27;14.47;;;7.40;;
23802;SDS011;12082;51.786;6.018;2023-05-27T13:28:55;15.53;;;8.77;;
23802;SDS011;12082;51.786;6.018;2023-05-27T13:31:21;14.70;;;8.03;;
23802;SDS011;12082;51.786;6.018;2023-05-27T13:33:46;16.53;;;8.13;;
23802;SDS011;12082;51.786;6.018;2023-05-27T13:36:12;10.73;;;6.97;;
23802;SDS011;12082;51.786;6.018;2023-05-27T13:38:38;15.67;;;7.53;;
23802;SDS011;12082;51.786;6.018;2023-05-27T13:41:03;18.03;;;6.87;;
23802;SDS011;12082;51.786;6.018;2023-05-27T13:43:29;13.47;;;7.20;;
23802;SDS011;12082;51.786;6.018;2023-05-27T13:45:55;12.40;;;7.60;;
23802;SDS011;12082;51.786;6.018;2023-05-27T13:48:20;13.57;;;9.03;;
23802;SDS011;12082;51.786;6.018;2023-05-27T13:50:46;16.73;;;7.27;;
23802;SDS011;12082;51.786;6.018;2023-05-27T13:53:12;12.03;;;7.93;;
23802;SDS011;12082;51.786;6.018;2023-05-27T13:55:37;14.73;;;7.80;;
23802;SDS011;12082;51.786;6.018;2023-05-27T13:58:03;17.53;;;7.83;;
23802;SDS011;12082;51.786;6.018;2023-05-27T14:00:28;7.90;;;7.07;;
23802;SDS011;12082;51.786;6.018;2023-05-27T14:02:55;13.60;;;7.93;;
23802;SDS011;12082;51.786;6.018;2023-05-27T14:05:23;21.33;;;8.07;;
23802;SDS011;12082;51.786;6.018;2023-05-27T14:07:49;15.07;;;7.40;;
23802;SDS011;12082;51.786;6.018;2023-05-27T14:10:14;14.03;;;7.50;;
23802;SDS011;12082;51.786;6.018;2023-05-27T14:12:40;12.13;;;7.80;;
23802;SDS011;12082;51.786;6.018;2023-05-27T14:15:06;14.43;;;8.10;;
23802;SDS011;12082;51.786;6.018;2023-05-27T14:17:32;13.43;;;7.47;;
23802;SDS011;12082;51.786;6.018;2023-05-27T14:19:57;11.47;;;8.00;;
23802;SDS011;12082;51.786;6.018;2023-05-27T14:22:23;13.10;;;7.60;;
23802;SDS011;12082;51.786;6.018;2023-05-27T14:24:49;14.97;;;8.00;;
23802;SDS011;12082;51.786;6.018;2023-05-27T14:27:15;10.73;;;7.07;;
23802;SDS011;12082;51.786;6.018;2023-05-27T14:29:40;11.70;;;7.37;;
23802;SDS011;12082;51.786;6.018;2023-05-27T14:32:06;10.17;;;7.17;;
23802;SDS011;12082;51.786;6.018;2023-05-27T14:34:32;15.77;;;7.80;;
23802;SDS011;12082;51.786;6.018;2023-05-27T14:36:58;9.90;;;7.07;;
23802;SDS011;12082;51.786;6.018;2023-05-27T14:39:24;11.07;;;7.23;;
23802;SDS011;12082;51.786;6.018;2023-05-27T14:41:50;12.97;;;7.47;;
23802;SDS011;12082;51.786;6.018;2023-05-27T14:44:15;14.63;;;7.30;;